Time;durP1;ratioP1;P1;durP2;ratioP2;P2;SDS_P1;SDS_P2;PMS_P1;PMS_P2;Temp;Humidity;BMP_temperature;BMP_pressure;BME280_temperature;BME280_humidity;BME280_pressure;Samples;Min_cycle;Max_cycle;Signal;HPM_P1;HPM_P2
2022/12/21 00:08:28;;;;;;;0.20;0.00;;;13.80;99.90;;;;;;20911311;28;20404;-81
2022/12/21 00:18:33;;;;;;;0.20;0.10;;;13.30;99.90;;;;;;20910473;28;20407;-84
2022/12/21 00:28:38;;;;;;;0.20;0.00;;;13.00;99.90;;;;;;20910103;28;20404;-78
2022/12/21 00:38:43;;;;;;;0.20;0.10;;;12.90;99.90;;;;;;20888386;28;20416;-76
2022/12/21 00:48:49;;;;;;;0.20;0.10;;;12.90;99.90;;;;;;20889446;28;20399;-81
2022/12/21 00:58:53;;;;;;;0.20;0.00;;;13.00;99.90;;;;;;20895343;28;20408;-83
2022/12/21 01:08:58;;;;;;;0.20;0.10;;;13.00;99.90;;;;;;20904068;28;20408;-80
2022/12/21 01:19:05;;;;;;;0.20;0.00;;;13.10;99.90;;;;;;20906415;28;20419;-82
2022/12/21 01:29:13;;;;;;;0.20;0.10;;;12.80;99.90;;;;;;20905136;28;20879;-82
2022/12/21 01:39:16;;;;;;;0.20;0.10;;;12.80;99.90;;;;;;20886336;28;20438;-80
2022/12/21 01:49:26;;;;;;;0.20;0.10;;;13.00;99.90;;;;;;20903352;28;20806;-79
2022/12/21 01:59:32;;;;;;;0.20;0.00;;;13.00;99.90;;;;;;20900990;28;20423;-78
2022/12/21 02:09:38;;;;;;;0.20;0.10;;;13.20;99.90;;;;;;20886121;28;20427;-78
2022/12/21 02:20:22;;;;;;;0.20;0.00;;;13.00;99.90;;;;;;20899519;28;20481;-78
2022/12/21 02:30:50;;;;;;;0.20;0.10;;;13.00;99.90;;;;;;20901115;28;20404;-79
2022/12/21 02:41:02;;;;;;;0.20;0.10;;;12.70;99.90;;;;;;20898677;28;20417;-78
2022/12/21 02:51:11;;;;;;;0.20;0.10;;;12.60;99.90;;;;;;20899444;28;20803;-77
2022/12/21 03:01:30;;;;;;;0.20;0.00;;;12.60;99.90;;;;;;20876627;28;20416;-78
2022/12/21 03:11:44;;;;;;;0.20;0.10;;;13.00;99.90;;;;;;20882105;28;20407;-76
2022/12/21 03:21:54;;;;;;;0.20;0.00;;;13.00;99.90;;;;;;20896760;28;20475;-77
2022/12/21 03:32:05;;;;;;;0.20;0.10;;;13.10;99.90;;;;;;20895141;28;20886;-76
2022/12/21 03:42:13;;;;;;;0.20;0.10;;;12.40;99.90;;;;;;20878574;28;20462;-77
2022/12/21 03:52:21;;;;;;;0.20;0.10;;;12.80;99.90;;;;;;20878265;28;20914;-76
2022/12/21 04:02:30;;;;;;;0.20;0.08;;;13.10;99.90;;;;;;20895503;28;20410;-76
2022/12/21 04:12:37;;;;;;;0.20;0.00;;;13.00;99.90;;;;;;20877299;28;20796;-78
2022/12/21 04:33:05;;;;;;;0.20;0.03;;;12.90;99.90;;;;;;20894310;28;20398;-77
2022/12/21 04:43:10;;;;;;;0.20;0.10;;;12.70;99.90;;;;;;20894504;28;20462;-78
2022/12/21 04:53:13;;;;;;;0.20;0.10;;;12.80;99.90;;;;;;20916143;28;20408;-79
2022/12/21 05:03:20;;;;;;;0.20;0.00;;;12.70;99.90;;;;;;20934378;28;20408;-77
2022/12/21 05:13:24;;;;;;;0.20;0.00;;;12.30;99.90;;;;;;20894814;28;20806;-78
2022/12/21 05:23:29;;;;;;;0.20;0.00;;;12.10;99.90;;;;;;20905623;28;20981;-79
2022/12/21 05:33:33;;;;;;;0.20;0.10;;;12.00;99.90;;;;;;20887200;28;20450;-78
2022/12/21 05:43:38;;;;;;;0.20;0.10;;;11.90;99.90;;;;;;20904180;28;20940;-77
2022/12/21 05:53:44;;;;;;;0.20;0.00;;;11.90;99.90;;;;;;20905208;28;20876;-78
2022/12/21 06:03:49;;;;;;;0.20;0.00;;;11.30;99.90;;;;;;20885967;28;20416;-79
2022/12/21 06:13:54;;;;;;;0.20;0.00;;;11.10;99.90;;;;;;20901953;28;20400;-79
2022/12/21 06:23:59;;;;;;;0.20;0.00;;;11.20;99.90;;;;;;20867249;28;20416;-81
2022/12/21 06:34:03;;;;;;;0.20;0.00;;;11.30;99.90;;;;;;20893743;28;20387;-78
2022/12/21 06:44:09;;;;;;;0.20;0.00;;;11.60;99.90;;;;;;20889127;28;20747;-76
2022/12/21 06:54:12;;;;;;;0.20;0.00;;;11.80;99.90;;;;;;20881825;28;20407;-76
2022/12/21 07:04:18;;;;;;;0.20;0.10;;;11.30;99.90;;;;;;20872078;28;20419;-78
2022/12/21 07:14:21;;;;;;;0.20;0.00;;;10.80;99.90;;;;;;20860250;28;20403;-78
2022/12/21 07:24:27;;;;;;;0.20;0.00;;;10.90;99.90;;;;;;20878191;28;20507;-76
2022/12/21 07:34:30;;;;;;;0.20;0.10;;;10.80;99.90;;;;;;20897090;28;20412;-78
2022/12/21 07:44:35;;;;;;;0.20;0.10;;;11.00;99.90;;;;;;20881044;28;20510;-79
2022/12/21 07:54:39;;;;;;;0.20;0.10;;;11.80;99.90;;;;;;20865185;28;20442;-75
2022/12/21 08:04:53;;;;;;;0.20;0.00;;;12.40;99.90;;;;;;20891486;28;20408;-73
2022/12/21 08:14:57;;;;;;;0.20;0.00;;;12.80;99.90;;;;;;20860084;28;20427;-80
2022/12/21 08:25:02;;;;;;;0.20;0.07;;;12.80;99.90;;;;;;20891887;28;20507;-79
2022/12/21 08:35:06;;;;;;;0.20;0.10;;;13.10;99.90;;;;;;20890584;28;20419;-79
2022/12/21 08:45:12;;;;;;;0.20;0.00;;;13.60;99.90;;;;;;20822509;28;20428;-78
2022/12/21 08:55:16;;;;;;;0.20;0.10;;;13.60;99.90;;;;;;20821317;28;20468;-80
2022/12/21 09:05:21;;;;;;;0.20;0.00;;;13.50;99.90;;;;;;20826349;28;20472;-82
2022/12/21 09:15:25;;;;;;;0.20;0.10;;;13.40;99.90;;;;;;20790442;28;20846;-80
2022/12/21 09:25:30;;;;;;;0.20;0.10;;;14.00;99.90;;;;;;20806904;28;20413;-72
2022/12/21 09:35:37;;;;;;;0.20;0.10;;;14.10;99.90;;;;;;20803628;28;20389;-80
2022/12/21 09:45:52;;;;;;;0.20;0.00;;;14.40;99.90;;;;;;20799115;28;20421;-79
2022/12/21 09:56:00;;;;;;;0.20;0.00;;;14.80;99.90;;;;;;20811983;28;20397;-78
2022/12/21 10:06:20;;;;;;;0.20;0.00;;;15.20;99.90;;;;;;20781994;28;20532;-78
2022/12/21 10:16:31;;;;;;;0.20;0.10;;;15.50;99.90;;;;;;20831409;28;20497;-75
2022/12/21 10:26:54;;;;;;;0.20;0.10;;;15.90;99.90;;;;;;20781787;28;20442;-76
2022/12/21 10:37:01;;;;;;;0.20;0.00;;;16.30;99.90;;;;;;20860023;28;20402;-76
2022/12/21 10:47:13;;;;;;;0.20;0.10;;;16.70;99.90;;;;;;20876640;28;20404;-77
2022/12/21 10:57:17;;;;;;;0.20;0.10;;;17.20;99.90;;;;;;20865153;28;20400;-77
2022/12/21 11:07:31;;;;;;;0.20;0.10;;;17.90;99.90;;;;;;20891127;28;20415;-76
2022/12/21 11:17:55;;;;;;;0.20;0.00;;;18.50;99.90;;;;;;20879790;28;20895;-77
2022/12/21 11:28:03;;;;;;;0.20;0.00;;;18.70;99.90;;;;;;20894379;28;20468;-77
2022/12/21 11:38:13;;;;;;;0.20;0.00;;;19.30;99.90;;;;;;20892631;28;20411;-77
2022/12/21 11:48:31;;;;;;;0.20;0.00;;;20.90;99.90;;;;;;20855124;28;20514;-77
2022/12/21 11:58:54;;;;;;;0.20;0.00;;;19.50;99.90;;;;;;20900803;28;20392;-76
2022/12/21 12:09:13;;;;;;;0.20;0.00;;;20.70;99.90;;;;;;20825154;28;20439;-76
2022/12/21 12:19:30;;;;;;;0.20;0.00;;;21.70;99.90;;;;;;20824326;28;20405;-75
2022/12/21 12:29:53;;;;;;;0.20;0.00;;;22.80;99.90;;;;;;20805832;28;20394;-75
2022/12/21 12:40:04;;;;;;;0.20;0.10;;;22.70;99.90;;;;;;20818093;28;20499;-75
2022/12/21 12:50:21;;;;;;;0.20;0.10;;;22.40;99.90;;;;;;20818446;28;20405;-75
2022/12/21 13:00:27;;;;;;;0.20;0.00;;;21.70;99.90;;;;;;20821530;28;20509;-78
2022/12/21 13:10:42;;;;;;;0.20;0.10;;;22.00;99.90;;;;;;20790143;28;20404;-75
2022/12/21 13:20:50;;;;;;;0.20;0.10;;;22.00;99.90;;;;;;20818689;28;20482;-73
2022/12/21 13:30:59;;;;;;;0.20;0.00;;;21.30;99.90;;;;;;20802877;28;20408;-70
2022/12/21 13:41:07;;;;;;;0.20;0.00;;;21.60;99.90;;;;;;20820486;28;20924;-75
2022/12/21 13:51:24;;;;;;;0.20;0.00;;;21.80;99.90;;;;;;20874277;28;20400;-73
2022/12/21 14:01:40;;;;;;;0.20;0.00;;;22.20;99.90;;;;;;20898744;28;20933;-73
2022/12/21 14:12:02;;;;;;;0.20;0.00;;;22.50;99.90;;;;;;20894954;28;20431;-78
2022/12/21 14:22:38;;;;;;;0.20;0.00;;;22.40;99.90;;;;;;20879785;28;20411;-75
2022/12/21 14:32:49;;;;;;;0.20;0.00;;;22.20;99.90;;;;;;20879787;28;20411;-76
2022/12/21 14:43:00;;;;;;;0.20;0.10;;;21.60;99.90;;;;;;20887269;28;20422;-76
2022/12/21 14:53:12;;;;;;;0.20;0.00;;;19.70;99.90;;;;;;20873246;28;20408;-77
2022/12/21 15:03:21;;;;;;;0.20;0.00;;;19.50;99.90;;;;;;20872955;28;20477;-78
2022/12/21 15:13:39;;;;;;;0.20;0.00;;;19.60;99.90;;;;;;20890435;28;20410;-77
2022/12/21 15:23:44;;;;;;;0.20;0.00;;;19.60;99.90;;;;;;20874647;28;20473;-77
2022/12/21 15:33:52;;;;;;;0.20;0.00;;;20.40;99.90;;;;;;20889806;28;20763;-78
2022/12/21 15:44:02;;;;;;;0.20;0.00;;;20.20;99.90;;;;;;20872492;28;20439;-81
2022/12/21 15:54:13;;;;;;;0.20;0.10;;;19.00;99.90;;;;;;20891326;28;20500;-78
2022/12/21 16:04:17;;;;;;;0.20;0.03;;;18.10;99.90;;;;;;20856108;28;20423;-79
2022/12/21 16:14:24;;;;;;;0.20;0.10;;;17.40;99.90;;;;;;20871370;28;20413;-79
2022/12/21 16:24:29;;;;;;;0.20;0.00;;;17.10;99.90;;;;;;20869125;28;20709;-80
2022/12/21 16:34:38;;;;;;;0.20;0.00;;;16.50;99.90;;;;;;20854412;28;20388;-80
2022/12/21 16:44:44;;;;;;;0.20;0.10;;;15.80;99.90;;;;;;20878072;28;20886;-80
2022/12/21 16:54:49;;;;;;;0.20;0.00;;;15.70;99.90;;;;;;20820729;28;20397;-81
2022/12/21 17:04:53;;;;;;;0.20;0.10;;;15.40;99.90;;;;;;20861623;28;20787;-81
2022/12/21 17:14:58;;;;;;;0.20;0.10;;;14.80;99.90;;;;;;20905336;28;20843;-80
2022/12/21 17:25:10;;;;;;;0.20;0.10;;;14.40;99.90;;;;;;20887883;28;20438;-81
2022/12/21 17:35:18;;;;;;;0.20;0.00;;;14.00;99.90;;;;;;20883681;28;20406;-81
2022/12/21 17:45:24;;;;;;;0.20;0.00;;;13.80;99.90;;;;;;20867625;28;20422;-80
2022/12/21 17:55:30;;;;;;;0.20;0.10;;;13.80;99.90;;;;;;20885106;28;20954;-82
2022/12/21 18:05:34;;;;;;;0.20;0.10;;;13.70;99.90;;;;;;20865412;28;20408;-79
2022/12/21 18:15:41;;;;;;;0.20;0.10;;;14.00;99.90;;;;;;20880235;28;20396;-85
2022/12/21 18:25:45;;;;;;;0.20;0.00;;;14.30;99.90;;;;;;20863266;28;20518;-82
2022/12/21 18:35:51;;;;;;;0.20;0.00;;;13.90;99.90;;;;;;20895542;28;20443;-81
2022/12/21 18:46:12;;;;;;;0.20;0.10;;;13.20;99.90;;;;;;20863813;28;20499;-84
2022/12/21 18:56:17;;;;;;;0.20;0.00;;;13.20;99.90;;;;;;20877992;28;20388;-81
2022/12/21 19:06:23;;;;;;;0.20;0.10;;;12.90;99.90;;;;;;20900847;28;20430;-83
2022/12/21 19:16:30;;;;;;;0.20;0.10;;;13.20;99.90;;;;;;20878504;28;20830;-82
2022/12/21 19:26:35;;;;;;;0.20;0.00;;;13.10;99.90;;;;;;20865116;28;20503;-82
2022/12/21 19:36:44;;;;;;;0.20;0.00;;;12.70;99.90;;;;;;20899859;28;20392;-83
2022/12/21 19:46:48;;;;;;;0.20;0.10;;;13.10;99.90;;;;;;20892156;28;20902;-81
2022/12/21 19:56:54;;;;;;;0.20;0.00;;;13.00;99.90;;;;;;20892941;28;20423;-82
2022/12/21 20:06:58;;;;;;;0.20;0.10;;;12.70;99.90;;;;;;20871249;28;20422;-76
2022/12/21 20:17:10;;;;;;;0.20;0.00;;;12.60;99.90;;;;;;20881621;28;20416;-80
2022/12/21 20:27:17;;;;;;;0.20;0.00;;;12.00;99.90;;;;;;20887128;28;20902;-80
2022/12/21 20:37:23;;;;;;;0.20;0.10;;;11.90;99.90;;;;;;20880312;28;20411;-80
2022/12/21 20:47:31;;;;;;;0.20;0.10;;;12.10;99.90;;;;;;20868786;28;20427;-78
2022/12/21 20:57:37;;;;;;;0.20;0.00;;;12.00;99.90;;;;;;20904012;28;20446;-85
2022/12/21 21:07:40;;;;;;;0.20;0.00;;;11.90;99.90;;;;;;20868391;28;20425;-79
2022/12/21 21:17:46;;;;;;;0.20;0.10;;;12.00;99.90;;;;;;20883418;28;20384;-78
2022/12/21 21:27:50;;;;;;;0.20;0.00;;;13.20;99.90;;;;;;20864902;28;20791;-79
2022/12/21 21:48:21;;;;;;;0.20;0.10;;;13.40;99.90;;;;;;20896319;28;20415;-79
2022/12/21 21:58:30;;;;;;;0.20;0.00;;;13.10;99.90;;;;;;20880153;28;21108;-80
2022/12/21 22:08:34;;;;;;;0.20;0.00;;;13.10;99.90;;;;;;20879946;28;20414;-84
2022/12/21 22:18:39;;;;;;;0.20;0.10;;;13.00;99.90;;;;;;20882413;28;20895;-83
2022/12/21 22:50:08;;;;;;;0.20;0.10;;;13.40;99.90;;;;;;20865464;28;20400;-79
2022/12/21 23:00:18;;;;;;;0.20;0.00;;;13.20;99.90;;;;;;20880299;28;20423;-79
2022/12/21 23:10:24;;;;;;;0.20;0.10;;;13.40;99.90;;;;;;20879873;28;20502;-80
2022/12/21 23:20:31;;;;;;;0.20;0.10;;;13.70;99.90;;;;;;20880110;28;20966;-81
